Tuesday, April 21, 2015, 7:20 PM EDT

KNHK, Nas Patuxent River Md

Location: Patuxent River, MD, United States Lat: 38.3
Local Time: 7:20 PM EDT (23:20 GMT) Lon: -76.4
Time Zone: US/Eastern Elev: 39 ft

Show me the last for .
Show Decoded

2015-04-21 18:52 METAR KNHK 212252Z 26006KT 10SM BKN095 18/01 A2976 RMK AO2 SLP077 T01830006 =
2015-04-21 17:52 METAR KNHK 212152Z 27011KT 10SM SCT080 19/M01 A2974 RMK AO2 SLP072 T01941006 =
2015-04-21 16:52 METAR KNHK 212052Z 28011G18KT 10SM FEW070 20/01 A2973 RMK AO2 SLP069 T02000006
                 56010 =
2015-04-21 15:52 METAR KNHK 211952Z 23015G21KT 10SM FEW065 19/01 A2974 RMK AO2 SLP070 T01940011 =
2015-04-21 14:52 METAR KNHK 211852Z 28011G21KT 10SM FEW065 20/M01 A2975 RMK AO2 SLP073 T02001006
                 =
2015-04-21 13:52 METAR KNHK 211752Z 27015G20KT 10SM FEW060 19/03 A2977 RMK AO2 SLP080 T01940028
                 10194 20144 58007 =
2015-04-21 11:52 METAR KNHK 211552Z 28013KT 10SM FEW050 18/02 A2978 RMK AO2 PK WND 28027/1512
                 SLP085 T01830022 =
2015-04-21 10:52 METAR KNHK 211452Z 28017G24KT 10SM FEW050 18/02 A2979 RMK AO2 SLP087 T01780017
                 51012 =
2015-04-21 09:52 METAR KNHK 211352Z 30013KT 10SM FEW050 FEW070 17/03 A2978 RMK AO2 SLP083
                 T01720028 =
2015-04-21 08:52 METAR KNHK 211252Z 32015G21KT 10SM BKN060 16/04 A2977 RMK AO2 SLP082 T01560044 =
2015-04-21 07:52 METAR KNHK 211152Z 32014KT 10SM FEW050 BKN065 14/06 A2975 RMK AO2 RAE14 SLP075
                 P0000 60000 T01440061 10200 20139 51036 =
2015-04-21 07:14 METAR KNHK 211114Z 32011KT 10SM BKN050 BKN060 14/08 A2974 RMK AO2 RAE14 P0000
                 T01440083 =
2015-04-21 06:52 METAR KNHK 211052Z 32010KT 10SM -RA SCT047 BKN060 14/09 A2972 RMK AO2 PK WND
                 31028/1026 RAB29 SLP066 P0000 T01390094 =
2015-04-21 03:52 METAR KNHK 210752Z AUTO 32010KT 10SM FEW023 BKN050 OVC110 17/12 A2962 RMK AO2
                 WSHFT 0725 SLP032 T01720122 =
2015-04-21 03:45 METAR KNHK 210745Z AUTO 32012KT 10SM FEW024 SCT034 BKN044 18/12 A2963 RMK AO2
                 WSHFT 0725 T01780122 =
2015-04-21 02:52 METAR KNHK 210652Z AUTO 22012KT 10SM CLR 19/16 A2959 RMK AO2 SLP020 T01940156 =
2015-04-21 01:52 METAR KNHK 210552Z AUTO 22011G21KT 10SM CLR 20/15 A2958 RMK AO2 SLP015 T02000150
                 10228 20200 50001 =
2015-04-21 00:52 METAR KNHK 210452Z AUTO 22012G22KT 10SM CLR 21/14 A2958 RMK AO2 PK WND
                 20026/0415 SLP017 T02110144 402560144 =
2015-04-20 22:52 METAR KNHK 210252Z 21008KT 10SM FEW030 FEW120 OVC200 22/16 A2957 RMK AO2 SLP014
                 OCNL LTGIC DSNT N CB DSNT N T1 SET T02170161 50005 =
2015-04-20 21:52 METAR KNHK 210152Z 21010G16KT 10SM FEW030 OVC200 22/16 A2958 RMK AO2 SLP018 OCNL
                 LTGIC DSNT NW-N CB DSNT NW-N T1 SET T02170161 =
2015-04-20 20:52 METAR KNHK 210052Z 17011G19KT 10SM FEW030 FEW100 OVC200 22/16 A2955 RMK AO2
                 SLP006 OCNL LTGIC DSNT W-N CB DSNT W-N T1 SET T02220161 =
2015-04-20 19:52 METAR KNHK 202352Z 17009KT 10SM FEW040 FEW090 OVC200 21/16 A2956 RMK AO2 SLP009
                 OCNL LTGIC DSNT NW CB DSNT NW T1 SET T02060156 10256 20183 56007 =

Support USWX by starting your Amazon purchase here.